Time;durP1;ratioP1;P1;durP2;ratioP2;P2;SDS_P1;SDS_P2;PMS_P1;PMS_P2;Temp;Humidity;BMP_temperature;BMP_pressure;BME280_temperature;BME280_humidity;BME280_pressure;Samples;Min_cycle;Max_cycle;Signal;HPM_P1;HPM_P2
2023/10/04 00:00:20;;;;;;;;;1.75;1.00;;;;;;;;5124459;27;10248;-78
2023/10/04 00:02:48;;;;;;;;;0.00;0.00;;;;;;;;5130377;27;10424;-78
2023/10/04 00:05:15;;;;;;;;;1.00;0.00;;;;;;;;5127123;27;10177;-77
2023/10/04 00:07:41;;;;;;;;;0.75;0.25;;;;;;;;5145160;27;10143;-78
2023/10/04 00:10:07;;;;;;;;;0.00;0.00;;;;;;;;5143355;27;10377;-77
2023/10/04 00:12:32;;;;;;;;;0.25;0.25;;;;;;;;5144613;27;10351;-77
2023/10/04 00:14:57;;;;;;;;;2.25;0.00;;;;;;;;5144483;27;8851;-77
2023/10/04 00:17:23;;;;;;;;;3.00;0.00;;;;;;;;5144731;27;8779;-77
2023/10/04 00:19:48;;;;;;;;;3.00;0.00;;;;;;;;5130317;27;8864;-78
2023/10/04 00:22:13;;;;;;;;;0.00;0.00;;;;;;;;5124190;27;9703;-77
2023/10/04 00:24:39;;;;;;;;;0.00;0.00;;;;;;;;5122451;27;8802;-77
2023/10/04 00:27:04;;;;;;;;;0.75;0.00;;;;;;;;5103926;28;8814;-78
2023/10/04 00:29:30;;;;;;;;;2.75;0.00;;;;;;;;5102887;28;8835;-77
2023/10/04 00:31:55;;;;;;;;;0.50;0.00;;;;;;;;5103440;28;8830;-77
2023/10/04 00:34:21;;;;;;;;;0.00;0.00;;;;;;;;5103213;28;8821;-78
2023/10/04 00:36:46;;;;;;;;;0.25;0.00;;;;;;;;5103186;28;8891;-78
2023/10/04 00:39:13;;;;;;;;;1.50;0.00;;;;;;;;5126269;27;9308;-77
2023/10/04 00:41:40;;;;;;;;;0.00;0.00;;;;;;;;5142945;27;10148;-78
2023/10/04 00:44:06;;;;;;;;;1.50;0.00;;;;;;;;5143719;27;10412;-78
2023/10/04 00:46:35;;;;;;;;;3.75;0.00;;;;;;;;5144281;27;10316;-78
2023/10/04 00:49:01;;;;;;;;;0.00;0.00;;;;;;;;5124641;27;10359;-77
2023/10/04 00:51:26;;;;;;;;;0.50;0.50;;;;;;;;5122297;28;10627;-78
2023/10/04 00:53:55;;;;;;;;;1.50;0.75;;;;;;;;5121934;28;8787;-78
2023/10/04 00:56:21;;;;;;;;;0.00;0.00;;;;;;;;5121643;28;8776;-77
2023/10/04 00:58:46;;;;;;;;;0.00;0.00;;;;;;;;5121063;28;10456;-77
2023/10/04 01:01:14;;;;;;;;;1.00;0.00;;;;;;;;5123234;28;10514;-77
2023/10/04 01:03:39;;;;;;;;;1.50;0.25;;;;;;;;5121648;28;8751;-77
2023/10/04 01:06:05;;;;;;;;;1.00;1.00;;;;;;;;5120485;27;10265;-77
2023/10/04 01:08:30;;;;;;;;;0.00;0.00;;;;;;;;5121613;28;8950;-77
2023/10/04 01:10:56;;;;;;;;;0.00;0.00;;;;;;;;5138103;27;10593;-78
2023/10/04 01:13:22;;;;;;;;;0.00;0.00;;;;;;;;5125752;27;8813;-77
2023/10/04 01:15:52;;;;;;;;;1.00;0.00;;;;;;;;5143967;27;8769;-78
2023/10/04 01:18:18;;;;;;;;;1.75;0.00;;;;;;;;5143730;27;10130;-77
2023/10/04 01:20:45;;;;;;;;;0.75;0.00;;;;;;;;5130563;27;10578;-77
2023/10/04 01:23:11;;;;;;;;;0.00;0.00;;;;;;;;5123102;27;8766;-77
2023/10/04 01:25:37;;;;;;;;;2.25;0.00;;;;;;;;5122544;27;10443;-77
2023/10/04 01:28:12;;;;;;;;;0.00;0.00;;;;;;;;5122145;27;10438;-77
2023/10/04 01:30:37;;;;;;;;;0.00;0.00;;;;;;;;5123190;27;10623;-78
2023/10/04 01:33:04;;;;;;;;;1.50;0.00;;;;;;;;5122840;27;10359;-78
2023/10/04 01:35:30;;;;;;;;;2.00;0.75;;;;;;;;5121293;28;8731;-77
2023/10/04 01:37:55;;;;;;;;;2.00;1.00;;;;;;;;5119936;27;10539;-77
2023/10/04 01:45:58;;;;;;;;;1.00;0.00;;;;;;;;1503255;26;10596;-75
2023/10/04 01:48:26;;;;;;;;;1.00;0.00;;;;;;;;5079009;28;10625;-75
2023/10/04 01:50:52;;;;;;;;;2.75;0.00;;;;;;;;5085974;28;8763;-75
2023/10/04 01:53:22;;;;;;;;;2.00;0.00;;;;;;;;5085680;28;10390;-75
2023/10/04 01:55:47;;;;;;;;;0.50;0.50;;;;;;;;5086196;28;10515;-75
2023/10/04 01:58:15;;;;;;;;;0.25;0.25;;;;;;;;5085168;28;11486;-75
2023/10/04 02:00:40;;;;;;;;;1.00;0.00;;;;;;;;5067963;28;8755;-75
2023/10/04 02:03:07;;;;;;;;;1.00;0.00;;;;;;;;5085349;28;10671;-75
2023/10/04 02:05:37;;;;;;;;;2.00;0.00;;;;;;;;5085329;28;8738;-75
2023/10/04 02:08:07;;;;;;;;;0.75;0.00;;;;;;;;5085911;28;10530;-75
2023/10/04 02:10:32;;;;;;;;;0.00;0.00;;;;;;;;5085287;28;10569;-75
2023/10/04 02:12:57;;;;;;;;;0.00;0.00;;;;;;;;5085090;28;10541;-75
2023/10/04 02:15:23;;;;;;;;;0.00;0.00;;;;;;;;5085502;28;8790;-75
2023/10/04 02:17:58;;;;;;;;;0.00;0.00;;;;;;;;5073035;28;8851;-75
2023/10/04 02:20:24;;;;;;;;;0.00;0.00;;;;;;;;5065588;28;8788;-75
2023/10/04 02:22:50;;;;;;;;;0.25;0.00;;;;;;;;5081302;28;10516;-75
2023/10/04 02:25:17;;;;;;;;;2.00;0.00;;;;;;;;5065681;28;10421;-75
2023/10/04 02:27:43;;;;;;;;;1.00;0.00;;;;;;;;5065221;28;8793;-75
2023/10/04 02:30:13;;;;;;;;;0.50;0.00;;;;;;;;5086721;28;10597;-75
2023/10/04 02:32:41;;;;;;;;;1.50;0.00;;;;;;;;5085338;28;10433;-75
2023/10/04 02:35:06;;;;;;;;;1.75;0.75;;;;;;;;5085091;28;10187;-75
2023/10/04 02:37:32;;;;;;;;;0.25;0.25;;;;;;;;5085150;28;10564;-75
2023/10/04 02:39:57;;;;;;;;;2.00;0.00;;;;;;;;5085282;28;8778;-75
2023/10/04 02:42:23;;;;;;;;;0.00;0.00;;;;;;;;5084169;28;8911;-75
2023/10/04 02:44:48;;;;;;;;;2.00;1.00;;;;;;;;5084867;28;8811;-75
2023/10/04 02:47:13;;;;;;;;;1.00;0.00;;;;;;;;5083392;28;8811;-75
2023/10/04 02:49:38;;;;;;;;;1.00;1.00;;;;;;;;5084224;28;8826;-75
2023/10/04 02:52:06;;;;;;;;;0.00;0.00;;;;;;;;5085031;28;8791;-75
2023/10/04 02:54:32;;;;;;;;;1.00;1.00;;;;;;;;5085157;28;8936;-75
2023/10/04 02:56:58;;;;;;;;;2.00;1.00;;;;;;;;5053959;28;10586;-75
2023/10/04 02:59:24;;;;;;;;;0.25;0.00;;;;;;;;5064805;28;10869;-75
2023/10/04 03:01:50;;;;;;;;;0.00;0.00;;;;;;;;5064990;28;10185;-75
2023/10/04 03:04:15;;;;;;;;;0.25;0.25;;;;;;;;5080030;28;10760;-74
2023/10/04 03:06:41;;;;;;;;;3.00;0.50;;;;;;;;5083108;28;9565;-75
2023/10/04 03:09:06;;;;;;;;;0.00;0.00;;;;;;;;5072082;28;9403;-75
2023/10/04 03:11:32;;;;;;;;;1.00;0.00;;;;;;;;5079056;28;8866;-75
2023/10/04 03:14:02;;;;;;;;;2.00;2.00;;;;;;;;5076135;28;8759;-75
2023/10/04 03:16:27;;;;;;;;;0.00;0.00;;;;;;;;5069204;28;10762;-75
2023/10/04 03:18:54;;;;;;;;;1.00;1.00;;;;;;;;5070266;28;12493;-75
2023/10/04 03:21:26;;;;;;;;;0.00;0.00;;;;;;;;5084999;28;8726;-75
2023/10/04 03:23:54;;;;;;;;;1.25;1.25;;;;;;;;5084609;28;10682;-75
2023/10/04 03:26:19;;;;;;;;;3.00;1.00;;;;;;;;5084334;28;10833;-75
2023/10/04 03:28:44;;;;;;;;;3.50;2.00;;;;;;;;5084434;28;10884;-75
2023/10/04 03:31:10;;;;;;;;;1.00;1.00;;;;;;;;5084758;28;8791;-75
2023/10/04 03:33:36;;;;;;;;;1.00;1.00;;;;;;;;5066076;28;8790;-75
2023/10/04 03:36:05;;;;;;;;;5.50;1.00;;;;;;;;5084297;28;8936;-75
2023/10/04 03:38:33;;;;;;;;;0.00;0.00;;;;;;;;5084463;28;8758;-75
2023/10/04 03:40:58;;;;;;;;;0.50;0.50;;;;;;;;5083996;28;10706;-75
2023/10/04 03:43:24;;;;;;;;;4.00;0.50;;;;;;;;5065346;28;10792;-75
2023/10/04 03:45:50;;;;;;;;;1.00;0.00;;;;;;;;5071553;28;8805;-75
2023/10/04 03:48:15;;;;;;;;;1.00;0.00;;;;;;;;5063978;28;8781;-75
2023/10/04 03:50:51;;;;;;;;;1.00;0.75;;;;;;;;5081176;28;9100;-75
2023/10/04 03:53:20;;;;;;;;;1.00;0.00;;;;;;;;5084166;28;8766;-75
2023/10/04 03:55:46;;;;;;;;;2.00;0.25;;;;;;;;5081814;28;10687;-75
2023/10/04 03:58:12;;;;;;;;;2.00;0.50;;;;;;;;5083685;28;10867;-75
2023/10/04 04:00:37;;;;;;;;;2.50;0.00;;;;;;;;5065657;28;8801;-75
2023/10/04 04:03:03;;;;;;;;;1.00;1.00;;;;;;;;5062366;28;9189;-75
2023/10/04 04:05:30;;;;;;;;;2.00;0.00;;;;;;;;5063708;28;8764;-75
2023/10/04 04:07:56;;;;;;;;;4.00;0.25;;;;;;;;5064300;28;9670;-75
2023/10/04 04:10:22;;;;;;;;;0.50;0.50;;;;;;;;5072957;28;10740;-74
2023/10/04 04:12:47;;;;;;;;;1.00;1.00;;;;;;;;5083218;28;9697;-75
2023/10/04 04:15:14;;;;;;;;;2.00;0.75;;;;;;;;5075221;28;11442;-75
2023/10/04 04:17:41;;;;;;;;;2.50;0.50;;;;;;;;5083819;28;8812;-75
2023/10/04 04:20:19;;;;;;;;;0.50;0.00;;;;;;;;5090932;28;10836;-75
2023/10/04 04:22:53;;;;;;;;;0.50;0.50;;;;;;;;5085698;28;10634;-75
2023/10/04 04:25:19;;;;;;;;;0.75;0.00;;;;;;;;5087732;28;10869;-75
2023/10/04 04:27:45;;;;;;;;;1.50;0.00;;;;;;;;5104040;28;10882;-75
2023/10/04 04:30:16;;;;;;;;;0.00;0.00;;;;;;;;5060368;28;10903;-75
2023/10/04 04:32:47;;;;;;;;;2.00;0.00;;;;;;;;5083468;28;8743;-75
2023/10/04 04:35:19;;;;;;;;;0.00;0.00;;;;;;;;5083231;28;10761;-75
2023/10/04 04:37:44;;;;;;;;;1.00;0.75;;;;;;;;5081612;28;10776;-75
2023/10/04 04:40:17;;;;;;;;;2.50;0.25;;;;;;;;5081947;28;10887;-75
2023/10/04 04:42:47;;;;;;;;;1.00;1.00;;;;;;;;5062976;28;8761;-75
2023/10/04 04:45:12;;;;;;;;;1.00;1.00;;;;;;;;5075798;28;10769;-75
2023/10/04 04:47:40;;;;;;;;;2.00;0.00;;;;;;;;5081831;28;11193;-75
2023/10/04 04:50:06;;;;;;;;;1.00;1.00;;;;;;;;5060993;28;8797;-75
2023/10/04 04:52:31;;;;;;;;;5.50;1.00;;;;;;;;5078052;28;11773;-75
2023/10/04 04:54:58;;;;;;;;;0.75;0.75;;;;;;;;5069647;28;8825;-75
2023/10/04 04:57:23;;;;;;;;;4.00;2.00;;;;;;;;5083065;28;8854;-75
2023/10/04 04:59:55;;;;;;;;;1.00;1.00;;;;;;;;5083172;28;11024;-75
2023/10/04 05:02:20;;;;;;;;;1.25;1.00;;;;;;;;5082597;28;8723;-75
2023/10/04 05:04:45;;;;;;;;;1.50;0.75;;;;;;;;5082222;28;10895;-75
2023/10/04 05:07:12;;;;;;;;;1.75;1.00;;;;;;;;5081759;28;8952;-75
2023/10/04 05:09:37;;;;;;;;;1.75;0.50;;;;;;;;5080977;28;8723;-76
2023/10/04 05:12:02;;;;;;;;;3.25;1.00;;;;;;;;5071075;28;10586;-78
2023/10/04 05:14:28;;;;;;;;;1.00;1.00;;;;;;;;5079561;28;8886;-77
2023/10/04 05:16:53;;;;;;;;;1.50;1.00;;;;;;;;5082978;28;8877;-78
2023/10/04 05:19:19;;;;;;;;;1.25;0.75;;;;;;;;5075854;28;8915;-75
2023/10/04 05:21:45;;;;;;;;;1.00;1.00;;;;;;;;5066096;28;8800;-74
2023/10/04 05:24:17;;;;;;;;;5.50;1.25;;;;;;;;5064394;28;8785;-74
2023/10/04 05:26:42;;;;;;;;;5.00;1.00;;;;;;;;5081425;28;11532;-74
2023/10/04 05:29:08;;;;;;;;;4.50;2.00;;;;;;;;5084674;28;10869;-74
2023/10/04 05:31:33;;;;;;;;;3.50;0.75;;;;;;;;5090507;28;8804;-76
2023/10/04 05:33:59;;;;;;;;;1.00;0.00;;;;;;;;5101001;28;8804;-76
2023/10/04 05:36:24;;;;;;;;;4.50;0.50;;;;;;;;5085804;28;8763;-80
2023/10/04 05:38:49;;;;;;;;;5.00;2.00;;;;;;;;5080398;28;8825;-76
2023/10/04 05:41:15;;;;;;;;;1.75;1.50;;;;;;;;5080644;28;8794;-76
2023/10/04 05:43:40;;;;;;;;;2.00;1.00;;;;;;;;5080996;28;8933;-75
2023/10/04 05:46:06;;;;;;;;;2.50;1.00;;;;;;;;5081290;28;8826;-75
2023/10/04 05:48:33;;;;;;;;;1.00;1.00;;;;;;;;5083414;28;8802;-75
2023/10/04 05:50:58;;;;;;;;;2.00;2.00;;;;;;;;5087780;28;10808;-83
2023/10/04 05:53:23;;;;;;;;;2.50;0.50;;;;;;;;5090174;28;10554;-77
2023/10/04 05:55:49;;;;;;;;;1.50;1.50;;;;;;;;5083791;28;8790;-75
2023/10/04 05:58:14;;;;;;;;;3.00;1.00;;;;;;;;5080833;28;8904;-72
2023/10/04 06:00:42;;;;;;;;;0.25;0.25;;;;;;;;5081238;28;8844;-73
2023/10/04 06:03:10;;;;;;;;;2.00;2.00;;;;;;;;5096532;28;8736;-72
2023/10/04 06:05:37;;;;;;;;;2.00;1.00;;;;;;;;5082842;28;11054;-72
2023/10/04 06:08:10;;;;;;;;;2.00;1.00;;;;;;;;5081633;28;10802;-72
2023/10/04 06:10:36;;;;;;;;;2.50;1.25;;;;;;;;5079603;28;10701;-72
2023/10/04 06:13:02;;;;;;;;;3.25;1.00;;;;;;;;5080527;28;10957;-72
2023/10/04 06:15:27;;;;;;;;;2.50;1.00;;;;;;;;5079240;28;8943;-72
2023/10/04 06:17:52;;;;;;;;;3.00;1.25;;;;;;;;5081259;28;8770;-72
2023/10/04 06:20:33;;;;;;;;;2.75;1.00;;;;;;;;5078610;28;8874;-72
2023/10/04 06:23:00;;;;;;;;;2.00;0.50;;;;;;;;5081228;28;8966;-72
2023/10/04 06:25:26;;;;;;;;;4.00;1.75;;;;;;;;5083782;28;10879;-72
2023/10/04 06:27:52;;;;;;;;;1.00;1.00;;;;;;;;5100907;28;10412;-72
2023/10/04 06:30:21;;;;;;;;;5.00;2.00;;;;;;;;5085063;28;10874;-72
2023/10/04 06:32:46;;;;;;;;;5.00;2.00;;;;;;;;5084643;28;10952;-73
2023/10/04 06:35:12;;;;;;;;;3.00;1.00;;;;;;;;5082383;28;11024;-74
2023/10/04 06:37:37;;;;;;;;;2.00;2.00;;;;;;;;5070921;28;8854;-74
2023/10/04 06:40:05;;;;;;;;;6.50;2.00;;;;;;;;5104911;28;8765;-74
2023/10/04 06:42:30;;;;;;;;;4.50;1.75;;;;;;;;5083945;28;8771;-75
2023/10/04 06:44:55;;;;;;;;;1.00;1.00;;;;;;;;5083295;28;12000;-75
2023/10/04 06:47:21;;;;;;;;;4.00;1.50;;;;;;;;5083491;28;9424;-75
2023/10/04 06:49:46;;;;;;;;;1.50;1.50;;;;;;;;5083022;28;8798;-74
2023/10/04 06:52:11;;;;;;;;;0.75;0.25;;;;;;;;5083556;28;8836;-74
2023/10/04 06:54:37;;;;;;;;;3.25;1.50;;;;;;;;5083606;28;10030;-74
2023/10/04 06:57:03;;;;;;;;;1.00;1.00;;;;;;;;5083113;28;8799;-74
2023/10/04 06:59:28;;;;;;;;;4.00;1.00;;;;;;;;5078668;28;8879;-74
2023/10/04 07:01:53;;;;;;;;;1.25;1.25;;;;;;;;5079013;28;11461;-74
2023/10/04 07:04:18;;;;;;;;;2.25;2.25;;;;;;;;5061128;28;9924;-74
2023/10/04 07:06:44;;;;;;;;;3.75;2.75;;;;;;;;5081429;28;8809;-74
2023/10/04 07:09:09;;;;;;;;;3.25;2.75;;;;;;;;5083642;28;8782;-74
2023/10/04 07:11:34;;;;;;;;;5.00;4.75;;;;;;;;5082407;28;9471;-74
2023/10/04 07:14:00;;;;;;;;;5.00;5.00;;;;;;;;5073451;28;8800;-74
2023/10/04 07:16:25;;;;;;;;;11.25;5.50;;;;;;;;5066960;28;8794;-75
2023/10/04 07:18:51;;;;;;;;;4.75;3.50;;;;;;;;5082895;28;8809;-75
2023/10/04 07:21:16;;;;;;;;;4.50;2.50;;;;;;;;5079253;28;8823;-74
2023/10/04 07:23:41;;;;;;;;;2.50;2.50;;;;;;;;5073756;28;9577;-74
2023/10/04 07:26:09;;;;;;;;;5.25;3.25;;;;;;;;5091925;28;8833;-74
2023/10/04 07:28:37;;;;;;;;;2.00;1.00;;;;;;;;5082731;28;8743;-74
2023/10/04 07:31:02;;;;;;;;;2.25;1.25;;;;;;;;5063691;28;10557;-74
2023/10/04 07:33:28;;;;;;;;;2.25;1.75;;;;;;;;5074703;28;10737;-75
2023/10/04 07:35:53;;;;;;;;;3.00;1.50;;;;;;;;5075578;28;10586;-74
2023/10/04 07:38:19;;;;;;;;;1.75;1.75;;;;;;;;5083269;28;8840;-74
2023/10/04 07:40:44;;;;;;;;;2.00;2.00;;;;;;;;5086336;28;8786;-74
2023/10/04 07:43:09;;;;;;;;;4.00;1.25;;;;;;;;5092007;28;9950;-74
2023/10/04 07:45:35;;;;;;;;;0.50;0.50;;;;;;;;5073775;28;8810;-75
2023/10/04 07:48:01;;;;;;;;;1.00;0.00;;;;;;;;5088842;28;8798;-74
2023/10/04 07:50:26;;;;;;;;;2.50;1.00;;;;;;;;5062925;28;10396;-74
2023/10/04 07:52:54;;;;;;;;;6.25;1.25;;;;;;;;5069164;28;10720;-74
2023/10/04 07:55:19;;;;;;;;;0.50;0.00;;;;;;;;5083314;28;8743;-75
2023/10/04 07:57:44;;;;;;;;;4.00;1.00;;;;;;;;5071879;28;10711;-74
2023/10/04 08:00:14;;;;;;;;;2.50;2.00;;;;;;;;5087544;28;8782;-75
2023/10/04 08:02:46;;;;;;;;;4.00;3.50;;;;;;;;5059973;28;10335;-75
2023/10/04 08:05:11;;;;;;;;;2.50;1.00;;;;;;;;5086881;28;10419;-74
2023/10/04 08:07:37;;;;;;;;;2.75;2.75;;;;;;;;5073761;28;10690;-74
2023/10/04 08:10:03;;;;;;;;;3.75;3.00;;;;;;;;5077923;28;8817;-75
2023/10/04 08:12:28;;;;;;;;;7.25;3.25;;;;;;;;5082262;28;8833;-74
2023/10/04 08:14:56;;;;;;;;;7.00;2.25;;;;;;;;5064619;28;10660;-74
2023/10/04 08:17:23;;;;;;;;;5.50;4.00;;;;;;;;5097646;28;8725;-74
2023/10/04 08:19:49;;;;;;;;;3.75;2.50;;;;;;;;5082767;28;10638;-74
2023/10/04 08:22:15;;;;;;;;;5.25;2.75;;;;;;;;5090146;28;10850;-73
2023/10/04 08:24:41;;;;;;;;;1.25;1.25;;;;;;;;5089635;28;8786;-75
2023/10/04 08:27:06;;;;;;;;;3.25;3.25;;;;;;;;5086249;28;10427;-74
2023/10/04 08:29:34;;;;;;;;;3.25;3.00;;;;;;;;5081657;28;8802;-75
2023/10/04 08:31:59;;;;;;;;;1.75;1.75;;;;;;;;5089739;28;8787;-73
2023/10/04 08:34:24;;;;;;;;;2.00;2.00;;;;;;;;5079127;28;10456;-73
2023/10/04 08:36:50;;;;;;;;;3.25;2.50;;;;;;;;5066251;28;9108;-74
2023/10/04 08:39:15;;;;;;;;;1.25;1.25;;;;;;;;5081802;28;9530;-73
2023/10/04 08:41:40;;;;;;;;;4.50;2.25;;;;;;;;5081818;28;8815;-73
2023/10/04 08:44:08;;;;;;;;;6.75;5.00;;;;;;;;5085706;28;8842;-73
2023/10/04 08:46:34;;;;;;;;;5.75;4.00;;;;;;;;5088583;28;8755;-73
2023/10/04 08:49:00;;;;;;;;;4.50;3.50;;;;;;;;5084204;28;10456;-73
2023/10/04 08:51:44;;;;;;;;;4.00;3.00;;;;;;;;5092996;28;10695;-73
2023/10/04 08:54:12;;;;;;;;;5.00;3.50;;;;;;;;5087475;28;11408;-73
2023/10/04 08:56:50;;;;;;;;;6.75;3.25;;;;;;;;5061740;28;10540;-73
2023/10/04 08:59:17;;;;;;;;;3.25;2.50;;;;;;;;5084717;28;10484;-73
2023/10/04 09:01:45;;;;;;;;;3.00;3.00;;;;;;;;5092645;28;10641;-73
2023/10/04 09:04:14;;;;;;;;;6.25;4.00;;;;;;;;5091525;28;10392;-73
2023/10/04 09:06:42;;;;;;;;;6.50;4.75;;;;;;;;5085745;28;10517;-73
2023/10/04 09:09:11;;;;;;;;;3.00;3.00;;;;;;;;5092700;28;10278;-74
2023/10/04 09:11:37;;;;;;;;;4.50;2.25;;;;;;;;5086690;28;10522;-73
2023/10/04 09:14:03;;;;;;;;;4.50;2.25;;;;;;;;5090034;28;10417;-73
2023/10/04 09:16:28;;;;;;;;;6.00;3.00;;;;;;;;5090784;28;8841;-73
2023/10/04 09:19:18;;;;;;;;;2.00;2.00;;;;;;;;5089794;28;10473;-73
2023/10/04 09:21:45;;;;;;;;;4.75;1.25;;;;;;;;5090281;28;8759;-73
2023/10/04 09:24:14;;;;;;;;;3.50;2.00;;;;;;;;5084470;28;10193;-73
2023/10/04 09:26:58;;;;;;;;;2.50;2.00;;;;;;;;5079114;28;10225;-73
2023/10/04 09:29:33;;;;;;;;;7.00;2.50;;;;;;;;5077213;28;10181;-73
2023/10/04 09:31:58;;;;;;;;;2.75;1.00;;;;;;;;5083972;28;10321;-73
2023/10/04 09:34:24;;;;;;;;;3.25;2.00;;;;;;;;5081437;28;10137;-73
2023/10/04 09:36:52;;;;;;;;;2.00;2.00;;;;;;;;5082469;28;8727;-74
2023/10/04 09:39:23;;;;;;;;;4.25;2.00;;;;;;;;5092707;28;10687;-73
2023/10/04 09:41:49;;;;;;;;;3.50;1.00;;;;;;;;5084805;28;10462;-73
2023/10/04 09:44:23;;;;;;;;;4.50;3.00;;;;;;;;5084887;28;10164;-73
2023/10/04 09:46:50;;;;;;;;;2.00;1.00;;;;;;;;5076546;28;8831;-73
2023/10/04 09:49:16;;;;;;;;;2.50;1.00;;;;;;;;5081613;28;9972;-73
2023/10/04 09:51:42;;;;;;;;;1.25;0.75;;;;;;;;5081809;28;10022;-73
2023/10/04 09:54:08;;;;;;;;;2.00;2.00;;;;;;;;5074369;28;8841;-74
2023/10/04 09:56:40;;;;;;;;;1.00;1.00;;;;;;;;5079734;28;10026;-73
2023/10/04 09:59:07;;;;;;;;;4.50;1.25;;;;;;;;5083590;28;9791;-73
2023/10/04 10:01:34;;;;;;;;;1.50;1.50;;;;;;;;5087358;28;10115;-73
2023/10/04 10:03:59;;;;;;;;;3.00;2.00;;;;;;;;5077327;28;9756;-73
2023/10/04 10:06:26;;;;;;;;;1.50;1.00;;;;;;;;5080778;28;9980;-73
2023/10/04 10:08:57;;;;;;;;;9.00;2.50;;;;;;;;5085659;28;8767;-72
2023/10/04 10:11:23;;;;;;;;;1.00;1.00;;;;;;;;5063272;28;10263;-72
2023/10/04 10:13:49;;;;;;;;;3.50;1.00;;;;;;;;5086310;28;9905;-72
2023/10/04 10:16:16;;;;;;;;;3.00;1.50;;;;;;;;5092073;28;8783;-73
2023/10/04 10:18:41;;;;;;;;;5.25;0.75;;;;;;;;5078044;28;9784;-72
2023/10/04 10:21:08;;;;;;;;;2.25;1.00;;;;;;;;5074157;28;10004;-78
2023/10/04 10:23:53;;;;;;;;;2.25;0.50;;;;;;;;5079818;28;8769;-78
2023/10/04 10:26:19;;;;;;;;;3.75;1.25;;;;;;;;5074123;28;9883;-77
2023/10/04 10:28:47;;;;;;;;;8.00;2.75;;;;;;;;5078629;28;10900;-78
2023/10/04 10:31:21;;;;;;;;;1.00;1.00;;;;;;;;5071247;28;10176;-77
2023/10/04 10:33:47;;;;;;;;;1.00;1.00;;;;;;;;5082129;28;9890;-80
2023/10/04 10:36:23;;;;;;;;;0.00;0.00;;;;;;;;5101273;28;9780;-74
2023/10/04 10:38:49;;;;;;;;;1.75;1.00;;;;;;;;5097426;28;8723;-78
2023/10/04 10:41:27;;;;;;;;;0.00;0.00;;;;;;;;5079468;28;10175;-78
2023/10/04 10:44:11;;;;;;;;;0.50;0.00;;;;;;;;5092009;28;9862;-75
2023/10/04 10:46:51;;;;;;;;;3.00;2.00;;;;;;;;5085399;28;9703;-74
2023/10/04 10:49:36;;;;;;;;;1.50;1.00;;;;;;;;5087156;28;9697;-78
2023/10/04 10:52:02;;;;;;;;;3.25;1.00;;;;;;;;5103629;28;9738;-78
2023/10/04 10:54:27;;;;;;;;;2.75;1.00;;;;;;;;5102659;28;9643;-76
2023/10/04 10:56:52;;;;;;;;;3.00;0.50;;;;;;;;5083716;28;8786;-77
2023/10/04 10:59:17;;;;;;;;;1.00;1.00;;;;;;;;5080136;28;8790;-72
2023/10/04 11:01:43;;;;;;;;;3.50;0.00;;;;;;;;5081171;28;8790;-73
2023/10/04 11:04:08;;;;;;;;;4.25;1.00;;;;;;;;5077877;28;8811;-73
2023/10/04 11:06:35;;;;;;;;;3.00;0.00;;;;;;;;5081746;28;8809;-78
2023/10/04 11:09:01;;;;;;;;;1.75;1.00;;;;;;;;5084850;28;8771;-76
2023/10/04 11:11:26;;;;;;;;;2.00;1.00;;;;;;;;5082614;28;10149;-75
2023/10/04 11:13:53;;;;;;;;;0.00;0.00;;;;;;;;5063575;28;8816;-82
2023/10/04 11:16:21;;;;;;;;;2.67;0.00;;;;;;;;5068509;28;8758;-75
2023/10/04 11:18:47;;;;;;;;;0.00;0.00;;;;;;;;5082977;28;9436;-76
2023/10/04 11:21:13;;;;;;;;;2.00;0.00;;;;;;;;5085154;28;9744;-74
2023/10/04 11:23:39;;;;;;;;;2.33;0.33;;;;;;;;5089619;28;9577;-74
2023/10/04 11:26:06;;;;;;;;;0.00;0.00;;;;;;;;5080825;28;8896;-76
2023/10/04 11:28:32;;;;;;;;;1.50;1.00;;;;;;;;5080544;28;8852;-75
2023/10/04 11:30:57;;;;;;;;;2.75;0.50;;;;;;;;5078229;28;9738;-76
2023/10/04 11:33:23;;;;;;;;;1.25;0.00;;;;;;;;5082404;28;8814;-76
2023/10/04 11:35:49;;;;;;;;;0.00;0.00;;;;;;;;5081269;28;8779;-76
2023/10/04 11:38:15;;;;;;;;;3.00;1.67;;;;;;;;5082530;28;11366;-75
2023/10/04 11:40:44;;;;;;;;;1.00;0.00;;;;;;;;5079501;28;10210;-75
2023/10/04 11:43:09;;;;;;;;;1.00;1.00;;;;;;;;5076374;28;9529;-75
2023/10/04 11:45:35;;;;;;;;;0.50;0.50;;;;;;;;5081211;28;9696;-74
2023/10/04 11:48:01;;;;;;;;;0.00;0.00;;;;;;;;5078168;28;8829;-74
2023/10/04 11:51:01;;;;;;;;;1.00;1.00;;;;;;;;5072110;28;10218;-76
2023/10/04 11:53:42;;;;;;;;;4.25;2.25;;;;;;;;5012310;28;9673;-77
2023/10/04 11:56:11;;;;;;;;;3.00;1.00;;;;;;;;5040912;28;9667;-76
2023/10/04 11:58:46;;;;;;;;;3.00;2.00;;;;;;;;5033839;28;10942;-76
2023/10/04 12:01:14;;;;;;;;;2.00;2.00;;;;;;;;5023453;28;10054;-75
2023/10/04 12:03:39;;;;;;;;;2.00;1.00;;;;;;;;5023207;28;9805;-75
2023/10/04 12:06:05;;;;;;;;;3.50;1.75;;;;;;;;5023797;28;9714;-77
2023/10/04 12:08:30;;;;;;;;;3.75;3.00;;;;;;;;5037813;28;8892;-81
2023/10/04 12:10:56;;;;;;;;;12.00;7.25;;;;;;;;5039753;28;10405;-77
2023/10/04 12:13:23;;;;;;;;;6.75;5.50;;;;;;;;5022553;28;9597;-74
2023/10/04 12:15:48;;;;;;;;;0.00;0.00;;;;;;;;5040098;28;8881;-76
2023/10/04 12:18:15;;;;;;;;;0.75;0.75;;;;;;;;5024057;28;9581;-73
2023/10/04 12:20:41;;;;;;;;;1.67;1.00;;;;;;;;5017146;28;10242;-73
2023/10/04 12:23:06;;;;;;;;;4.67;1.00;;;;;;;;5027772;28;9498;-73
2023/10/04 12:25:31;;;;;;;;;0.25;0.25;;;;;;;;5028891;28;8846;-73
2023/10/04 12:27:57;;;;;;;;;0.67;0.67;;;;;;;;5032243;28;8860;-73
2023/10/04 12:30:27;;;;;;;;;0.00;0.00;;;;;;;;5082012;28;8886;-73
2023/10/04 12:32:53;;;;;;;;;3.25;1.75;;;;;;;;5082307;28;8790;-73
2023/10/04 12:35:18;;;;;;;;;1.25;0.00;;;;;;;;5089103;28;10445;-73
2023/10/04 12:37:44;;;;;;;;;0.00;0.00;;;;;;;;5085354;28;8794;-73
2023/10/04 12:40:23;;;;;;;;;4.50;2.00;;;;;;;;5067567;28;9922;-73
2023/10/04 12:42:48;;;;;;;;;2.67;0.00;;;;;;;;5084433;28;8801;-73
2023/10/04 12:45:17;;;;;;;;;2.00;1.00;;;;;;;;5086534;28;9499;-73
2023/10/04 12:47:43;;;;;;;;;1.00;1.00;;;;;;;;5084587;28;8839;-73
2023/10/04 12:50:12;;;;;;;;;1.33;0.33;;;;;;;;5078462;28;10072;-73
2023/10/04 12:52:39;;;;;;;;;1.00;1.00;;;;;;;;5087073;28;9307;-73
2023/10/04 12:55:05;;;;;;;;;1.33;1.33;;;;;;;;5090169;28;9360;-73
2023/10/04 12:57:30;;;;;;;;;0.67;0.67;;;;;;;;5089633;28;9255;-73
2023/10/04 12:59:56;;;;;;;;;1.33;1.33;;;;;;;;5085157;28;9933;-73
2023/10/04 13:02:22;;;;;;;;;1.67;1.00;;;;;;;;5095932;28;8821;-73
2023/10/04 13:04:50;;;;;;;;;0.33;0.00;;;;;;;;5092047;28;8749;-73
2023/10/04 13:07:15;;;;;;;;;1.33;0.33;;;;;;;;5072324;28;9660;-73
2023/10/04 13:09:44;;;;;;;;;1.00;1.00;;;;;;;;5092316;28;9523;-73
2023/10/04 13:12:13;;;;;;;;;2.00;0.33;;;;;;;;5088921;28;8837;-73
2023/10/04 13:14:38;;;;;;;;;2.00;1.67;;;;;;;;5090106;28;9371;-73
2023/10/04 13:17:06;;;;;;;;;1.00;1.00;;;;;;;;5093628;28;9407;-74
2023/10/04 13:19:35;;;;;;;;;3.33;0.00;;;;;;;;5077436;28;9979;-74
2023/10/04 13:22:00;;;;;;;;;0.00;0.00;;;;;;;;5079272;28;9196;-73
2023/10/04 13:24:31;;;;;;;;;1.33;1.33;;;;;;;;5081904;28;9171;-73
2023/10/04 13:26:57;;;;;;;;;5.00;1.00;;;;;;;;5080905;28;8775;-71
2023/10/04 13:29:23;;;;;;;;;2.00;0.00;;;;;;;;5081455;28;9372;-73
2023/10/04 13:31:49;;;;;;;;;3.00;1.00;;;;;;;;5094235;28;9153;-73
2023/10/04 13:34:14;;;;;;;;;0.33;0.33;;;;;;;;5081116;28;9138;-74
2023/10/04 13:36:39;;;;;;;;;0.67;0.67;;;;;;;;5084900;28;8836;-73
2023/10/04 13:39:05;;;;;;;;;3.67;1.33;;;;;;;;5081563;28;9956;-73
2023/10/04 13:41:31;;;;;;;;;1.33;0.00;;;;;;;;5084612;28;8806;-74
2023/10/04 13:43:56;;;;;;;;;0.00;0.00;;;;;;;;5082785;28;8765;-73
2023/10/04 13:46:22;;;;;;;;;1.00;1.00;;;;;;;;5080578;28;9214;-73
2023/10/04 13:48:49;;;;;;;;;2.67;1.00;;;;;;;;5075286;28;9247;-73
2023/10/04 13:51:23;;;;;;;;;5.00;0.67;;;;;;;;5090526;28;8766;-73
2023/10/04 13:53:49;;;;;;;;;1.67;1.00;;;;;;;;5089488;28;9347;-73
2023/10/04 13:56:14;;;;;;;;;2.67;2.00;;;;;;;;5072446;28;9218;-73
2023/10/04 13:58:40;;;;;;;;;1.00;1.00;;;;;;;;5094309;28;9713;-73
2023/10/04 14:01:05;;;;;;;;;2.00;0.00;;;;;;;;5083923;28;8875;-73
2023/10/04 14:03:33;;;;;;;;;2.00;0.33;;;;;;;;5083939;28;8874;-73
2023/10/04 14:06:06;;;;;;;;;0.67;0.67;;;;;;;;5084427;28;8745;-73
2023/10/04 14:08:31;;;;;;;;;4.67;1.33;;;;;;;;5085090;28;9393;-73
2023/10/04 14:10:57;;;;;;;;;0.67;0.67;;;;;;;;5084681;28;9135;-73
2023/10/04 14:13:23;;;;;;;;;0.67;0.67;;;;;;;;5083050;28;8875;-73
2023/10/04 14:15:55;;;;;;;;;3.33;2.00;;;;;;;;5084975;28;8818;-73
2023/10/04 14:18:20;;;;;;;;;5.00;1.00;;;;;;;;5078164;28;8807;-73
2023/10/04 14:20:46;;;;;;;;;2.00;1.00;;;;;;;;5066419;28;9305;-73
2023/10/04 14:23:12;;;;;;;;;2.00;1.00;;;;;;;;5098849;28;8733;-73
2023/10/04 14:25:40;;;;;;;;;1.67;1.67;;;;;;;;5092439;28;9834;-71
2023/10/04 14:28:06;;;;;;;;;0.00;0.00;;;;;;;;5065109;28;8816;-73
2023/10/04 14:30:31;;;;;;;;;1.00;1.00;;;;;;;;5064636;28;8785;-73
2023/10/04 14:32:57;;;;;;;;;3.33;0.33;;;;;;;;5078087;28;8927;-73
2023/10/04 14:35:23;;;;;;;;;1.33;0.67;;;;;;;;5084482;28;8802;-73
2023/10/04 14:37:49;;;;;;;;;1.25;0.75;;;;;;;;5085441;28;8770;-73
2023/10/04 14:40:17;;;;;;;;;0.00;0.00;;;;;;;;5084317;28;8775;-73
2023/10/04 14:42:42;;;;;;;;;3.75;1.25;;;;;;;;5065211;28;9241;-73
2023/10/04 14:45:08;;;;;;;;;0.00;0.00;;;;;;;;5084314;28;8848;-71
2023/10/04 14:47:34;;;;;;;;;3.33;3.00;;;;;;;;5091161;28;8854;-72
2023/10/04 14:49:59;;;;;;;;;1.33;1.33;;;;;;;;5084112;28;8779;-72
2023/10/04 14:52:25;;;;;;;;;1.33;0.67;;;;;;;;5082639;28;8791;-72
2023/10/04 14:54:50;;;;;;;;;1.75;1.00;;;;;;;;5075447;28;8787;-71